Terminal Aerodrome Forecast
Issued by NWS

Home | Current Version | Previous Version | Text Only | Print | Product List | Glossary On
Versions: 1 2 3 4 5 6 7 8 9 10 11 12 13 14
000
FTUS44 KLZK 010500
TAFHRO
TAF
KHRO 010520Z 0106/0206 16008KT P6SM SCT025 SCT250 WS020/22040KT
      TEMPO 0110/0114 5SM BR BKN015
     FM011500 19012G20KT P6SM SCT040 BKN250
     FM020000 16009KT P6SM BKN040 BKN100=

USA.gov is the U.S. government's official web portal to all federal, state and local government web resources and services.